createdAt,value
2023-05-05T00:01:08.425Z,10.39
2023-05-05T00:03:35.071Z,10.33
2023-05-05T00:06:02.034Z,10.29
2023-05-05T00:08:28.645Z,10.36
2023-05-05T00:10:55.158Z,10.28
2023-05-05T00:13:21.939Z,10.35
2023-05-05T00:15:50.648Z,10.32
2023-05-05T00:18:18.459Z,10.24
2023-05-05T00:20:45.636Z,10.23
2023-05-05T00:23:12.180Z,10.30
2023-05-05T00:25:38.612Z,10.38
2023-05-05T00:28:05.369Z,10.30
2023-05-05T00:30:31.756Z,10.22
2023-05-05T00:32:58.330Z,10.23
2023-05-05T00:35:24.770Z,10.24
2023-05-05T00:37:51.084Z,10.07
2023-05-05T00:40:17.509Z,10.06
2023-05-05T00:42:46.070Z,10.04
2023-05-05T00:45:14.195Z,9.97
2023-05-05T00:47:47.590Z,9.92
2023-05-05T00:50:22.336Z,9.96
2023-05-05T00:52:49.435Z,9.93
2023-05-05T00:55:16.070Z,9.81
2023-05-05T00:57:43.244Z,9.79
2023-05-05T01:00:10.409Z,9.74
2023-05-05T01:02:37.031Z,9.62
2023-05-05T01:05:03.942Z,9.51
2023-05-05T01:07:47.920Z,9.56
2023-05-05T01:10:25.110Z,9.50
2023-05-05T01:12:57.108Z,9.47
2023-05-05T01:15:37.658Z,9.44
2023-05-05T01:18:29.462Z,9.41
2023-05-05T01:21:06.961Z,9.29
2023-05-05T01:23:54.902Z,9.36
2023-05-05T01:26:45.864Z,9.39
2023-05-05T01:29:50.629Z,9.36
2023-05-05T01:32:25.478Z,9.31
2023-05-05T01:35:29.320Z,9.21
2023-05-05T01:38:06.017Z,9.22
2023-05-05T01:40:40.910Z,9.24
2023-05-05T01:43:10.242Z,9.26
2023-05-05T01:45:39.860Z,9.19
2023-05-05T01:48:08.077Z,9.10
2023-05-05T01:50:35.787Z,9.14
2023-05-05T01:53:04.665Z,9.20
2023-05-05T01:55:33.357Z,9.15
2023-05-05T01:58:02.181Z,9.12
2023-05-05T02:00:28.954Z,9.14
2023-05-05T02:02:56.603Z,9.18
2023-05-05T02:05:24.656Z,9.14
2023-05-05T02:07:53.512Z,9.18
2023-05-05T02:10:20.268Z,9.12
2023-05-05T02:12:47.679Z,9.14
2023-05-05T02:15:16.295Z,9.15
2023-05-05T02:17:43.590Z,9.20
2023-05-05T02:20:14.665Z,9.16
2023-05-05T02:22:41.265Z,9.20
2023-05-05T02:25:09.216Z,9.17
2023-05-05T02:27:37.195Z,9.16
2023-05-05T02:30:08.780Z,9.15
2023-05-05T02:32:40.216Z,9.11
2023-05-05T02:35:14.935Z,9.08
2023-05-05T02:37:48.522Z,9.05
2023-05-05T02:40:22.771Z,8.99
2023-05-05T02:42:51.339Z,8.98
2023-05-05T02:45:21.469Z,8.99
2023-05-05T02:47:47.955Z,8.84
2023-05-05T02:50:14.841Z,8.84
2023-05-05T02:52:41.788Z,8.80
2023-05-05T02:55:08.636Z,8.86
2023-05-05T02:57:42.528Z,8.74
2023-05-05T03:00:23.163Z,8.79
2023-05-05T03:03:18.521Z,8.76
2023-05-05T03:05:53.803Z,8.70
2023-05-05T03:08:50.497Z,8.78
2023-05-05T03:11:26.163Z,8.78
2023-05-05T03:13:59.396Z,8.80
2023-05-05T03:16:27.825Z,8.74
2023-05-05T03:18:57.020Z,8.72
2023-05-05T03:21:23.673Z,8.73
2023-05-05T03:23:50.344Z,8.80
2023-05-05T03:26:17.673Z,8.79
2023-05-05T03:28:44.174Z,8.82
2023-05-05T03:31:11.613Z,8.72
2023-05-05T03:33:37.929Z,8.77
2023-05-05T03:36:04.536Z,8.75
2023-05-05T03:38:30.832Z,8.87
2023-05-05T03:40:57.349Z,8.77
2023-05-05T03:43:23.635Z,8.84
2023-05-05T03:45:50.038Z,8.82
2023-05-05T03:48:16.420Z,8.87
2023-05-05T03:50:45.309Z,8.85
2023-05-05T03:53:11.755Z,8.71
2023-05-05T03:55:38.113Z,8.76
2023-05-05T03:58:04.408Z,8.79
2023-05-05T04:00:30.782Z,8.65
2023-05-05T04:02:57.509Z,8.60
2023-05-05T04:05:23.937Z,8.73
2023-05-05T04:07:50.346Z,8.60
2023-05-05T04:10:16.859Z,8.59
2023-05-05T04:12:43.570Z,8.64
2023-05-05T04:15:10.370Z,8.59
2023-05-05T04:17:36.661Z,8.58
2023-05-05T04:20:03.476Z,8.59
2023-05-05T04:22:29.804Z,8.59
2023-05-05T04:24:56.176Z,8.54
2023-05-05T04:27:22.565Z,8.49
2023-05-05T04:29:48.934Z,8.39
2023-05-05T04:32:15.379Z,8.41
2023-05-05T04:34:41.799Z,8.54
2023-05-05T04:37:08.257Z,8.50
2023-05-05T04:39:35.094Z,8.60
2023-05-05T04:42:01.414Z,8.62
2023-05-05T04:44:27.792Z,8.60
2023-05-05T04:46:54.343Z,8.70
2023-05-05T04:49:20.919Z,8.66
2023-05-05T04:51:47.385Z,8.80
2023-05-05T04:54:13.759Z,8.75
2023-05-05T04:56:40.314Z,8.85
2023-05-05T04:59:06.660Z,8.99
2023-05-05T05:01:33.152Z,8.97
2023-05-05T05:03:59.728Z,8.95
2023-05-05T05:06:26.044Z,9.00
2023-05-05T05:08:53.086Z,9.14
2023-05-05T05:11:19.480Z,9.18
2023-05-05T05:13:45.820Z,9.30
2023-05-05T05:16:12.311Z,9.35
2023-05-05T05:18:38.678Z,9.34
2023-05-05T05:21:05.197Z,9.38
2023-05-05T05:23:31.628Z,9.44
2023-05-05T05:25:58.148Z,9.53
2023-05-05T05:28:24.545Z,9.55
2023-05-05T05:30:51.105Z,9.54
2023-05-05T05:33:17.431Z,9.70
2023-05-05T05:35:43.799Z,9.74
2023-05-05T05:38:10.944Z,9.89
2023-05-05T05:40:37.762Z,9.90
2023-05-05T05:43:04.094Z,9.96
2023-05-05T05:45:30.598Z,10.01
2023-05-05T05:47:57.114Z,10.08
2023-05-05T05:50:23.532Z,10.18
2023-05-05T05:52:50.066Z,10.29
2023-05-05T05:55:16.535Z,10.27
2023-05-05T05:57:43.223Z,10.41
2023-05-05T06:00:10.197Z,10.59
2023-05-05T06:02:36.820Z,10.63
2023-05-05T06:05:04.020Z,10.72
2023-05-05T06:07:30.526Z,10.81
2023-05-05T06:09:56.862Z,10.97
2023-05-05T06:12:23.361Z,11.12
2023-05-05T06:14:49.652Z,11.19
2023-05-05T06:17:16.077Z,11.36
2023-05-05T06:19:42.610Z,11.43
2023-05-05T06:22:09.452Z,11.48
2023-05-05T06:24:35.956Z,11.63
2023-05-05T06:27:02.309Z,11.57
2023-05-05T06:29:28.882Z,11.86
2023-05-05T06:31:55.822Z,11.90
2023-05-05T06:34:22.224Z,12.09
2023-05-05T06:36:48.644Z,12.16
2023-05-05T06:39:16.199Z,12.19
2023-05-05T06:41:42.658Z,12.34
2023-05-05T06:44:08.979Z,12.30
2023-05-05T06:46:35.917Z,12.58
2023-05-05T06:49:02.258Z,12.59
2023-05-05T06:51:28.948Z,12.75
2023-05-05T06:53:55.309Z,12.77
2023-05-05T06:56:21.880Z,12.86
2023-05-05T06:58:48.531Z,13.13
2023-05-05T07:01:14.856Z,13.28
2023-05-05T07:03:42.683Z,13.32
2023-05-05T07:06:09.134Z,13.51
2023-05-05T07:08:35.785Z,13.58
2023-05-05T07:11:02.097Z,13.70
2023-05-05T07:13:28.797Z,13.78
2023-05-05T07:15:57.403Z,13.96
2023-05-05T07:18:23.727Z,14.23
2023-05-05T07:20:50.409Z,14.35
2023-05-05T07:23:16.767Z,14.38
2023-05-05T07:25:43.131Z,14.52
2023-05-05T07:28:09.924Z,14.75
2023-05-05T07:30:36.252Z,14.90
2023-05-05T07:33:02.934Z,15.06
2023-05-05T07:35:29.868Z,15.14
2023-05-05T07:37:56.311Z,15.23
2023-05-05T07:40:23.353Z,15.39
2023-05-05T07:42:49.746Z,15.38
2023-05-05T07:45:16.278Z,15.52
2023-05-05T07:47:42.982Z,15.67
2023-05-05T07:50:10.062Z,15.81
2023-05-05T07:52:45.387Z,15.77
2023-05-05T07:55:14.658Z,15.92
2023-05-05T07:57:41.272Z,16.13
2023-05-05T08:00:08.282Z,16.33
2023-05-05T08:02:35.021Z,16.50
2023-05-05T08:05:01.743Z,16.68
2023-05-05T08:07:31.158Z,16.98
2023-05-05T08:09:57.464Z,17.21
2023-05-05T08:12:23.891Z,17.44
2023-05-05T08:14:51.334Z,17.98
2023-05-05T08:17:18.483Z,18.32
2023-05-05T08:19:45.171Z,18.55
2023-05-05T08:22:12.319Z,18.76
2023-05-05T08:24:38.676Z,18.88
2023-05-05T08:27:04.977Z,18.99
2023-05-05T08:29:31.385Z,18.96
2023-05-05T08:31:57.692Z,19.47
2023-05-05T08:34:24.492Z,19.45
2023-05-05T08:36:51.194Z,19.75
2023-05-05T08:39:18.107Z,20.19
2023-05-05T08:41:44.862Z,20.12
2023-05-05T08:44:11.294Z,20.17
2023-05-05T08:46:39.757Z,20.16
2023-05-05T08:49:13.831Z,20.21
2023-05-05T08:51:43.303Z,20.41
2023-05-05T08:54:17.740Z,21.32
2023-05-05T08:56:46.932Z,21.42
2023-05-05T08:59:14.797Z,21.61
2023-05-05T09:01:42.172Z,22.04
2023-05-05T09:04:09.449Z,23.15
2023-05-05T09:06:36.108Z,22.79
2023-05-05T09:09:02.881Z,23.51
2023-05-05T09:11:29.572Z,23.23
2023-05-05T09:13:57.057Z,23.44
2023-05-05T09:16:23.386Z,22.99
2023-05-05T09:18:49.747Z,23.20
2023-05-05T09:21:23.460Z,23.47
2023-05-05T09:24:09.640Z,23.08
2023-05-05T09:26:42.451Z,22.97
2023-05-05T09:29:09.229Z,22.87
2023-05-05T09:31:37.003Z,22.71
2023-05-05T09:34:15.386Z,22.30
2023-05-05T09:36:46.494Z,22.19
2023-05-05T09:39:20.617Z,22.61
2023-05-05T09:41:47.068Z,23.40
2023-05-05T09:44:14.028Z,23.64
2023-05-05T09:46:51.176Z,23.67
2023-05-05T09:49:22.234Z,23.29
2023-05-05T09:51:48.847Z,22.97
2023-05-05T09:54:22.308Z,22.81
2023-05-05T09:56:48.814Z,22.56
2023-05-05T09:59:16.849Z,22.24
2023-05-05T10:01:43.291Z,21.83
2023-05-05T10:04:23.710Z,21.57
2023-05-05T10:06:50.217Z,21.48
2023-05-05T10:09:16.911Z,21.43
2023-05-05T10:11:45.247Z,21.45
2023-05-05T10:14:15.489Z,21.61
2023-05-05T10:16:50.412Z,21.83
2023-05-05T10:19:19.552Z,22.26
2023-05-05T10:21:59.315Z,22.72
2023-05-05T10:24:37.512Z,23.44
2023-05-05T10:27:12.688Z,23.63
2023-05-05T10:30:08.447Z,23.94
2023-05-05T10:32:57.302Z,24.69
2023-05-05T10:35:35.338Z,24.98
2023-05-05T10:38:03.578Z,24.74
2023-05-05T10:40:30.842Z,24.84
2023-05-05T10:42:58.305Z,24.43
2023-05-05T10:45:24.982Z,23.96
2023-05-05T10:47:52.935Z,23.83
2023-05-05T10:50:39.064Z,23.86
2023-05-05T10:53:15.547Z,23.70
2023-05-05T10:55:49.858Z,23.61
2023-05-05T10:58:36.594Z,23.51
2023-05-05T11:01:08.692Z,23.52
2023-05-05T11:03:36.703Z,23.46
2023-05-05T11:06:06.014Z,23.62
2023-05-05T11:08:33.078Z,23.53
2023-05-05T11:11:00.051Z,23.52
2023-05-05T11:13:27.025Z,23.41
2023-05-05T11:15:56.015Z,23.34
2023-05-05T11:18:39.967Z,23.26
2023-05-05T11:21:14.506Z,23.42
2023-05-05T11:23:46.715Z,23.37
2023-05-05T11:26:14.539Z,23.08
2023-05-05T11:28:59.108Z,22.96
2023-05-05T11:31:25.568Z,23.18
2023-05-05T11:33:52.400Z,23.58
2023-05-05T11:36:20.316Z,23.69
2023-05-05T11:39:06.653Z,23.92
2023-05-05T11:41:32.898Z,23.92
2023-05-05T11:44:13.429Z,23.72
2023-05-05T11:47:02.732Z,23.55
2023-05-05T11:49:32.234Z,23.78
2023-05-05T11:52:01.475Z,23.73
2023-05-05T11:54:29.180Z,23.68
2023-05-05T11:56:58.347Z,23.50
2023-05-05T11:59:25.170Z,23.33
2023-05-05T12:01:52.299Z,23.17
2023-05-05T12:04:19.762Z,22.97
2023-05-05T12:06:46.615Z,22.88
2023-05-05T12:09:21.469Z,23.08
2023-05-05T12:11:58.425Z,22.95
2023-05-05T12:14:25.455Z,22.80
2023-05-05T12:17:07.517Z,22.82
2023-05-05T12:19:35.612Z,22.81
2023-05-05T12:22:03.516Z,22.93
2023-05-05T12:24:30.272Z,22.82
2023-05-05T12:27:09.914Z,22.90
2023-05-05T12:29:36.483Z,22.98
2023-05-05T12:32:04.268Z,23.09
2023-05-05T12:34:31.927Z,22.96
2023-05-05T12:36:58.434Z,22.93
2023-05-05T12:39:35.311Z,22.84
2023-05-05T12:42:03.350Z,22.63
2023-05-05T12:44:40.108Z,22.56
2023-05-05T12:47:07.648Z,22.39
2023-05-05T12:49:51.196Z,22.43
2023-05-05T12:52:21.250Z,22.36
2023-05-05T12:54:57.672Z,22.53
2023-05-05T12:57:25.753Z,22.66
2023-05-05T12:59:53.487Z,22.66
2023-05-05T13:02:20.887Z,22.64
2023-05-05T13:04:52.229Z,22.64
2023-05-05T13:07:20.725Z,22.65
2023-05-05T13:09:48.903Z,22.52
2023-05-05T13:12:18.655Z,22.44
2023-05-05T13:14:45.650Z,22.39
2023-05-05T13:17:13.026Z,22.33
2023-05-05T13:19:40.233Z,22.51
2023-05-05T13:22:06.743Z,22.49
2023-05-05T13:24:46.574Z,22.56
2023-05-05T13:27:17.676Z,22.81
2023-05-05T13:29:44.043Z,23.12
2023-05-05T13:32:10.346Z,23.21
2023-05-05T13:34:36.760Z,23.23
2023-05-05T13:37:03.166Z,23.16
2023-05-05T13:39:29.501Z,23.11
2023-05-05T13:41:55.841Z,23.16
2023-05-05T13:44:22.214Z,23.22
2023-05-05T13:46:48.697Z,23.09
2023-05-05T13:49:15.706Z,23.07
2023-05-05T13:51:42.373Z,22.92
2023-05-05T13:54:08.900Z,22.71
2023-05-05T13:56:35.530Z,22.58
2023-05-05T13:59:01.836Z,22.45
2023-05-05T14:01:28.516Z,22.49
2023-05-05T14:03:57.285Z,22.46
2023-05-05T14:06:24.734Z,22.14
2023-05-05T14:08:51.207Z,21.93
2023-05-05T14:11:17.575Z,21.68
2023-05-05T14:13:44.009Z,21.37
2023-05-05T14:16:11.444Z,20.84
2023-05-05T14:18:37.754Z,20.41
2023-05-05T14:21:04.167Z,19.98
2023-05-05T14:23:30.792Z,19.82
2023-05-05T14:25:57.362Z,19.67
2023-05-05T14:28:23.654Z,19.61
2023-05-05T14:30:49.955Z,19.43
2023-05-05T14:33:16.389Z,19.33
2023-05-05T14:35:42.838Z,19.30
2023-05-05T14:38:09.165Z,19.28
2023-05-05T14:40:35.552Z,19.34
2023-05-05T14:43:01.959Z,19.38
2023-05-05T14:45:28.276Z,19.46
2023-05-05T14:47:55.107Z,19.48
2023-05-05T14:50:21.527Z,19.58
2023-05-05T14:52:47.824Z,19.79
2023-05-05T14:55:14.226Z,19.82
2023-05-05T14:57:40.704Z,19.86
2023-05-05T15:00:09.352Z,19.93
2023-05-05T15:02:35.727Z,19.89
2023-05-05T15:05:02.192Z,19.91
2023-05-05T15:07:28.556Z,20.10
2023-05-05T15:09:55.447Z,20.20
2023-05-05T15:12:22.465Z,20.09
2023-05-05T15:14:49.030Z,20.13
2023-05-05T15:17:15.398Z,19.94
2023-05-05T15:19:42.347Z,19.93
2023-05-05T15:22:08.713Z,19.87
2023-05-05T15:24:35.135Z,19.80
2023-05-05T15:27:01.549Z,19.74
2023-05-05T15:29:28.018Z,19.65
2023-05-05T15:31:54.399Z,19.55
2023-05-05T15:34:20.720Z,19.36
2023-05-05T15:36:47.122Z,19.37
2023-05-05T15:39:13.441Z,19.20
2023-05-05T15:41:39.962Z,19.15
2023-05-05T15:44:06.415Z,19.10
2023-05-05T15:46:32.797Z,19.00
2023-05-05T15:48:59.243Z,19.03
2023-05-05T15:51:25.683Z,19.04
2023-05-05T15:53:52.611Z,19.02
2023-05-05T15:56:19.419Z,18.92
2023-05-05T15:58:46.023Z,19.04
2023-05-05T16:01:12.394Z,19.06
2023-05-05T16:03:38.960Z,19.05
2023-05-05T16:06:05.612Z,19.09
2023-05-05T16:08:32.234Z,19.23
2023-05-05T16:10:58.529Z,19.22
2023-05-05T16:13:24.923Z,19.28
2023-05-05T16:15:51.285Z,19.30
2023-05-05T16:18:17.865Z,19.22
2023-05-05T16:20:44.353Z,19.28
2023-05-05T16:23:10.671Z,19.28
2023-05-05T16:25:37.342Z,19.28
2023-05-05T16:28:03.992Z,19.32
2023-05-05T16:30:30.441Z,19.20
2023-05-05T16:32:56.833Z,19.30
2023-05-05T16:35:23.360Z,19.38
2023-05-05T16:37:49.920Z,19.43
2023-05-05T16:40:16.259Z,19.18
2023-05-05T16:42:44.497Z,19.25
2023-05-05T16:45:11.538Z,19.20
2023-05-05T16:47:38.287Z,19.05
2023-05-05T16:50:05.275Z,18.98
2023-05-05T16:52:31.580Z,18.91
2023-05-05T16:54:57.967Z,18.76
2023-05-05T16:57:24.552Z,18.73
2023-05-05T16:59:51.123Z,18.74
2023-05-05T17:02:17.609Z,18.72
2023-05-05T17:04:43.926Z,18.63
2023-05-05T17:07:10.445Z,18.60
2023-05-05T17:09:36.800Z,18.55
2023-05-05T17:12:03.387Z,18.63
2023-05-05T17:14:30.346Z,18.59
2023-05-05T17:16:56.724Z,18.50
2023-05-05T17:19:23.106Z,18.44
2023-05-05T17:21:49.514Z,18.37
2023-05-05T17:24:16.582Z,18.33
2023-05-05T17:26:43.025Z,18.26
2023-05-05T17:29:10.948Z,18.25
2023-05-05T17:31:39.036Z,18.38
2023-05-05T17:34:05.420Z,18.43
2023-05-05T17:36:31.754Z,18.48
2023-05-05T17:38:58.046Z,18.33
2023-05-05T17:41:24.580Z,18.08
2023-05-05T17:43:51.303Z,17.88
2023-05-05T17:46:17.751Z,17.86
2023-05-05T17:48:44.230Z,17.76
2023-05-05T17:51:10.562Z,17.74
2023-05-05T17:53:36.956Z,17.62
2023-05-05T17:56:03.355Z,17.49
2023-05-05T17:58:29.767Z,17.43
2023-05-05T18:00:56.101Z,17.39
2023-05-05T18:03:22.775Z,17.36
2023-05-05T18:05:49.199Z,17.36
2023-05-05T18:08:15.619Z,17.29
2023-05-05T18:10:42.527Z,17.32
2023-05-05T18:13:09.109Z,17.26
2023-05-05T18:15:35.487Z,17.15
2023-05-05T18:18:01.916Z,17.22
2023-05-05T18:20:28.236Z,17.14
2023-05-05T18:22:54.614Z,17.13
2023-05-05T18:25:21.034Z,17.12
2023-05-05T18:27:47.355Z,17.04
2023-05-05T18:30:13.882Z,16.97
2023-05-05T18:32:40.216Z,16.91
2023-05-05T18:35:07.439Z,16.89
2023-05-05T18:37:34.174Z,16.83
2023-05-05T18:40:00.472Z,16.84
2023-05-05T18:42:26.771Z,16.78
2023-05-05T18:44:53.234Z,16.82
2023-05-05T18:47:19.521Z,16.90
2023-05-05T18:49:46.390Z,16.85
2023-05-05T18:52:13.049Z,16.84
2023-05-05T18:54:39.342Z,16.82
2023-05-05T18:57:05.689Z,16.75
2023-05-05T18:59:32.047Z,16.72
2023-05-05T19:01:58.417Z,16.72
2023-05-05T19:04:31.365Z,16.79
2023-05-05T19:06:58.841Z,16.79
2023-05-05T19:09:25.179Z,16.70
2023-05-05T19:11:51.474Z,16.68
2023-05-05T19:14:18.126Z,16.69
2023-05-05T19:16:44.656Z,16.69
2023-05-05T19:19:11.226Z,16.69
2023-05-05T19:21:37.553Z,16.62
2023-05-05T19:24:04.163Z,16.58
2023-05-05T19:26:30.589Z,16.51
2023-05-05T19:28:56.934Z,16.33
2023-05-05T19:31:23.383Z,16.31
2023-05-05T19:33:49.707Z,16.27
2023-05-05T19:36:16.072Z,16.36
2023-05-05T19:38:42.472Z,16.30
2023-05-05T19:41:08.801Z,16.25
2023-05-05T19:43:35.126Z,16.24
2023-05-05T19:46:01.715Z,16.26
2023-05-05T19:48:28.207Z,16.15
2023-05-05T19:50:54.690Z,16.14
2023-05-05T19:53:20.989Z,16.14
2023-05-05T19:55:47.373Z,16.00
2023-05-05T19:58:13.751Z,16.01
2023-05-05T20:00:40.213Z,16.08
2023-05-05T20:03:06.678Z,16.06
2023-05-05T20:05:33.124Z,16.06
2023-05-05T20:07:59.620Z,16.00
2023-05-05T20:10:26.025Z,15.95
2023-05-05T20:12:52.350Z,15.94
2023-05-05T20:15:20.150Z,16.00
2023-05-05T20:17:47.822Z,15.93
2023-05-05T20:20:20.240Z,15.96
2023-05-05T20:22:47.979Z,15.89
2023-05-05T20:25:15.056Z,15.91
2023-05-05T20:27:42.074Z,15.92
2023-05-05T20:30:11.878Z,15.87
2023-05-05T20:32:38.478Z,15.80
2023-05-05T20:35:05.353Z,15.75
2023-05-05T20:37:31.704Z,15.76
2023-05-05T20:39:58.069Z,15.75
2023-05-05T20:42:24.563Z,15.67
2023-05-05T20:44:51.315Z,15.70
2023-05-05T20:47:17.706Z,15.65
2023-05-05T20:49:44.103Z,15.64
2023-05-05T20:52:10.404Z,15.57
2023-05-05T20:54:36.843Z,15.53
2023-05-05T20:57:03.221Z,15.60
2023-05-05T20:59:29.574Z,15.57
2023-05-05T21:01:59.344Z,15.53
2023-05-05T21:04:25.810Z,15.54
2023-05-05T21:06:52.212Z,15.56
2023-05-05T21:09:18.606Z,15.46
2023-05-05T21:11:44.927Z,15.55
2023-05-05T21:14:11.323Z,15.48
2023-05-05T21:16:38.057Z,15.54
2023-05-05T21:19:04.644Z,15.53
2023-05-05T21:21:31.008Z,15.57
2023-05-05T21:23:57.662Z,15.61
2023-05-05T21:26:24.810Z,15.61
2023-05-05T21:28:51.858Z,15.50
2023-05-05T21:31:22.268Z,15.50
2023-05-05T21:33:49.034Z,15.49
2023-05-05T21:36:15.352Z,15.51
2023-05-05T21:38:41.880Z,15.58
2023-05-05T21:41:08.179Z,15.58
2023-05-05T21:43:34.679Z,15.50
2023-05-05T21:46:03.558Z,15.46
2023-05-05T21:48:29.937Z,15.39
2023-05-05T21:50:56.368Z,15.38
2023-05-05T21:53:23.704Z,15.44
2023-05-05T21:55:50.373Z,15.43
2023-05-05T21:58:17.040Z,15.41
2023-05-05T22:00:43.425Z,15.37
2023-05-05T22:03:10.180Z,15.31
2023-05-05T22:05:36.517Z,15.35
2023-05-05T22:08:03.086Z,15.56
2023-05-05T22:10:29.617Z,15.43
2023-05-05T22:12:56.151Z,15.32
2023-05-05T22:15:22.750Z,15.33
2023-05-05T22:17:49.190Z,15.38
2023-05-05T22:20:15.828Z,15.36
2023-05-05T22:22:42.217Z,15.33
2023-05-05T22:25:09.412Z,15.20
2023-05-05T22:27:36.148Z,15.24
2023-05-05T22:30:02.515Z,15.37
2023-05-05T22:32:29.061Z,15.44
2023-05-05T22:34:55.500Z,15.42
2023-05-05T22:37:22.103Z,15.49
2023-05-05T22:39:48.393Z,15.36
2023-05-05T22:42:14.898Z,15.24
2023-05-05T22:44:41.201Z,15.09
2023-05-05T22:47:07.838Z,14.96
2023-05-05T22:49:34.285Z,14.75
2023-05-05T22:52:00.619Z,14.61
2023-05-05T22:54:26.948Z,14.55
2023-05-05T22:56:53.455Z,14.43
2023-05-05T22:59:19.787Z,14.32
2023-05-05T23:01:46.169Z,14.32
2023-05-05T23:04:12.642Z,14.37
2023-05-05T23:06:39.104Z,14.27
2023-05-05T23:09:05.507Z,14.28
2023-05-05T23:11:31.845Z,14.21
2023-05-05T23:13:58.340Z,14.11
2023-05-05T23:16:24.914Z,14.15
2023-05-05T23:18:51.314Z,14.13
2023-05-05T23:21:17.716Z,14.04
2023-05-05T23:23:44.016Z,14.10
2023-05-05T23:26:10.442Z,14.04
2023-05-05T23:28:36.818Z,14.01
2023-05-05T23:31:03.269Z,14.00
2023-05-05T23:33:29.584Z,13.99
2023-05-05T23:35:56.036Z,13.98
2023-05-05T23:38:22.402Z,13.94
2023-05-05T23:40:49.140Z,14.00
2023-05-05T23:43:15.507Z,14.00
2023-05-05T23:45:41.874Z,14.01
2023-05-05T23:48:08.637Z,14.05
2023-05-05T23:50:35.062Z,13.97
2023-05-05T23:53:01.358Z,13.99
2023-05-05T23:55:27.791Z,13.94
2023-05-05T23:57:54.158Z,13.89
